Terminal Aerodrome Forecast
Issued by NWS Wilmington, NC

Home | Current Version | Previous Version | Text Only | Print | Product List | Glossary On
Versions: 1 2 3 4 5 6 7 8 9 10 11 12 13 14 15 16 17
000
FTUS42 KILM 240922 AAC
TAFMYR
TAF AMD
KMYR 240922Z 2409/2506 04010KT P6SM VCSH OVC022
      TEMPO 2409/2411 3SM SHRA BKN005
     FM241500 12011G19KT 4SM SHRA OVC020
     FM242300 12010KT 2SM +SHRA OVC006
     FM250300 16009KT 2SM +SHRA BKN003
      AMD LTD TO CLD VIS AND WIND TIL 241000=

USA.gov is the U.S. government's official web portal to all federal, state and local government web resources and services.